LEGR/GRX METAR and TAF weather

Enter ICAO airport designator
Station Type Date Time Source
LEGR METAR 2019/09/21 21:00 UTC NOAA

LEGR 212100Z 22003KT 170V280 9999 FEW045 SCT090 21/16 Q1017


Station Type Date Time Source
LEGR Decoded METAR 2019/09/21 21:00 UTC NOAA

Granada / Aeropuerto, Spain (LEGR) 37-11N 003-47W 570M
Sep 21, 2019 - 05:00 PM EDT / 2019.09.21 2100 UTC
Wind: from the SW (220 degrees) at 3 MPH (3 KT) (direction variable):0
Visibility: greater than 7 mile(s):0
Sky conditions: partly cloudy
Temperature: 69 F (21 C)
Dew Point: 60 F (16 C)
Relative Humidity: 73%
Pressure (altimeter): 30.03 in. Hg (1017 hPa)
ob: LEGR 212100Z 22003KT 170V280 9999 FEW045 SCT090 21/16 Q1017
cycle: 21

Station Type Date Time Source
LEGR TAF 2019/09/21 21:27 UTC NOAA

TAF LEGR 212000Z 2121/2221 25009KT CAVOK TX26/2213Z TN14/2206Z PROB30
TEMPO 2121/2208 4000 SHRA FEW035CB

Example: see airport list